Logo AVAMET
Benvolgut visitant, si us plau, ingressa Recuperar contrasenya

Alcoi Urb. Montesol

Dades diàries. Acumulats / Últims 30 dies disponibles

Data Temperatura (°C) Humitat rel. (%) Pressió rel. (hPa) Vent (km/h) Precipitació
Mínima Mitjana Màxima Amplitud
tèrmica
Mínima Mitjana Màxima Mínima Mitjana Màxima Predom. Mitjana Ràfega
màxima
Total
(mm)
Índex-n
Mínima Mitjana Màxima Mínima Mitjana Màxima n
0 a 1
P0 max
mm 5'
Dades mensuals acumulades fins l'últim dia disponible
10/2019 4,7 9,4 14,8 16,3 9,9 21,7 28,6 23,9 0 70 97 1.006 1.016 1.024   0,3 20,9 13,8
Dades anuals acumulades fins l'últim dia disponible
2019 -7,9 8,2 22,8 15,0 5,2 22,1 38,1 0 65 99 995 1.017 1.036   0,4 37,0 481,6
Últims 30 dies disponibles
26-10-2019 6,1     12,3     19,4 13,3 58 84 97 1.022 1.022 1.023 ONO 0,0 1,6 0,0
25-10-2019 5,8     13,3     21,4 15,6 34 72 96 1.022 1.023 1.024 O 0,0 3,2 0,0
24-10-2019 6,0     10,8     14,3 8,3 64 76 89 1.012 1.019 1.024 O 0,1 12,9 0,0
23-10-2019 6,2     9,0     13,2 7,0 62 81 96 1.007 1.010 1.013 ONO 0,1 16,1 2,0
22-10-2019 7,2     8,6     9,9 2,7 92 95 96 1.006 1.010 1.017 O 0,0 12,9 0,30 1,80
21-10-2019 4,7     10,9     14,4 9,7 0 80 94 1.016 1.018 1.019 O 0,0 3,2 0,0
20-10-2019 6,0     11,3     15,1 9,1 70 82 92 1.006 1.010 1.016 ONO 0,0 9,7 2,4 0,34 0,40
19-10-2019 10,9     17,4     23,0 12,1 50 68 86 1.007 1.009 1.014 ONO 1,1 17,7 0,0
18-10-2019 10,9     17,9     23,2 12,3 48 62 85 1.014 1.016 1.019 ONO 0,4 16,1 0,0
17-10-2019 7,0     16,4     21,7 14,7 32 56 82 1.017 1.018 1.019 ONO 0,2 16,1 0,0
16-10-2019 4,7     14,7     20,2 15,5 31 56 84 1.018 1.020 1.022 O 0,0 9,7 0,0
15-10-2019 6,2     11,9     17,2 11,0 39 63 85 1.015 1.019 1.022 ONO 0,5 16,1 0,0
14-10-2019 11,8     16,8     22,4 10,6 30 79 96 1.010 1.013 1.016 O 0,8 20,9 9,4 0,28 4,00
13-10-2019 9,6     19,2     26,5 16,9 40 74 97 1.015 1.016 1.018 ONO 0,5 14,5 0,0
12-10-2019 10,3     17,1     22,2 11,9 0 88 97 1.016 1.018 1.020 SO 0,8 12,9 0,0
11-10-2019 11,8     18,4     25,4 13,6 52 79 97 1.018 1.020 1.022 O 0,1 9,7 0,0
10-10-2019 12,5     18,3     22,3 9,8 67 85 97 1.018 1.020 1.021 SO 0,5 11,3 0,0
09-10-2019 14,8     21,2     26,4 11,6 55 74 93 1.014 1.016 1.018 OSO 0,3 14,5 0,0
08-10-2019 11,1     17,7     23,2 12,1 59 80 94 1.017 1.018 1.020 O 1,0 16,1 0,0
07-10-2019 11,3     19,2     26,1 14,8 35 64 93 1.014 1.016 1.018 ONO 0,2 16,1 0,0
06-10-2019 11,8     20,6     27,3 15,5 34 64 90 1.015 1.016 1.018 O 0,1 8,0 0,0
05-10-2019 11,8     20,6     27,5 15,7 32 62 93 1.013 1.015 1.016 OSO 0,3 12,9 0,0
04-10-2019 10,6     20,9     26,7 16,1 26 51 76 1.014 1.016 1.017 OSO 0,2 14,5 0,0
03-10-2019 9,9     18,7     24,3 14,4 24 45 80 1.015 1.017 1.018 O 0,0 12,9 0,0
02-10-2019 11,6     18,0     23,3 11,7 33 53 80 1.012 1.014 1.017 ONO 0,2 14,5 0,0
01-10-2019 13,6     21,8     28,6 15,0 28 48 84 1.009 1.011 1.014 ONO 0,3 14,5 0,0
30-09-2019 11,4     22,4     29,6 18,2 33 64 92 1.013 1.015 1.017 SO 0,2 12,9 0,0
29-09-2019 11,4     22,6     29,6 18,2 23 58 94 1.015 1.017 1.019 ONO 0,2 12,9 0,0
28-09-2019 13,1     21,0     26,3 13,2 50 74 94 1.017 1.018 1.020 SO 0,3 11,3 0,0
27-09-2019 15,3     23,0     29,2 13,9 30 62 90 1.015 1.017 1.019 ONO 0,5 12,9 0,0
Últims 13 mesos disponibles
10/2019 4,7 9,4 14,8 16,3 9,9 21,7 28,6 23,9 45 70 95 1.009 1.016 1.023 ONO 0,3 20,9
09/2019 9,6 13,7 17,8 19,0 15,7 24,6 31,6 22,0 57 79 98 1.010 1.017 1.025 O 0,3 25,7 172,0
08/2019 11,2 15,7 22,5 23,5 23,7 31,0 37,2 26,0 29 61 86 1.008 1.015 1.020 O 1,1 22,5 19,6
07/2019 12,5 16,1 22,8 24,1 25,6 32,1 36,8 24,3 37 53 80 1.007 1.013 1.021 O 0,8 33,8 1,6
06/2019 6,2 11,9 17,3 20,6 19,4 28,2 38,1 31,9 29 53 81 1.007 1.014 1.021 O 0,7 29,0 1,4
05/2019 2,4 8,1 13,8 15,2 17,4 22,5 29,2 26,8 40 65 84 1.005 1.015 1.024 O 0,5 29,0 13,2
04/2019 0,1 5,7 9,5 10,5 8,4 16,4 23,3 23,2 45 74 98 1.000 1.013 1.025 O 0,1 32,2 214,8
03/2019 -3,0 2,3 9,6 9,3 8,1 16,8 24,4 27,4 32 61 95 1.011 1.023 1.032 O 0,0 27,4 38,8
02/2019 -6,3 -0,2 3,5 6,7 6,6 15,3 23,2 29,5 36 67 88 996 1.026 1.034 O 0,2 37,0 4,2
01/2019 -7,9 -1,1 6,9 4,4 5,2 11,3 16,9 24,8 55 71 88 1.005 1.018 1.028 O 0,0 33,8 2,2
Tots els anys disponibles
Temperatura (°C)
Humitat relativa (%)
Pressió (hPa)
Precipitació (mm)
Nota sobre les dades: s'avisa a l'usuari de la provisionalitat i no oficialitat d'aquestes dades
Logo AVAMET blanc
Web allotjada a Sollutia
Llicència de Creative CommonsLa web d'AVAMET i els seus continguts estan subjectes a una llicència de
Reconeixement - No Comercial - Compartir igual
Últimes estacions: Xàbia - Alt de la Granadella (Soci), Villena - Sierra de Salinas (Soci), Sueca - Centre (Inforatge), Xàbia - La Plana (Soci), - - -